ZF1RC George Town KY current weather conditions

sailwx.info

Wind from 095 at 0 knots gusting 1

Air temperature 30.6° C
Dewpoint 24.2° C

Last reported at 2016-Dec-07 19:50 UTC.
Time now 2016-Dec-07 20:22 UTC

Location: N 19°16' W 081°23'.
View on Google Maps.

See reports from other nearby stations

  
Tides and Currents Weather Stations Pressure Air Temp Water Temp Dewpoint Dewpoint Depression Visibility Wind Speed Wind Dir Waves Ship Positions
date/time (UTC)wind fromknots sea level pressurealtimeterstation pressurevisibilityair tempwater tempwave heightnotes
2016-Dec-07 19:50 095 0 gusting 1 30.6
2016-Dec-07 19:40 181 30.6
2016-Dec-07 19:30 117 0 gusting 2 30.6
2016-Dec-07 19:20 168 0 gusting 5 30.6
2016-Dec-07 19:10 086 1 gusting 1 30.6
2016-Dec-07 19:00 109 0 gusting 2 30.6
2016-Dec-07 18:50 223 1 gusting 5 31.1
2016-Dec-07 18:40 204 0 gusting 0 31.1
2016-Dec-07 18:30 176 0 gusting 2 31.1
2016-Dec-07 18:20 190 0 gusting 0 31.1
2016-Dec-07 18:00 178 2 gusting 4 31.1
2016-Dec-07 17:50 117 0 gusting 1 30.6
2016-Dec-07 17:40 194 1 gusting 1 31.1
2016-Dec-07 17:20 103 31.1
2016-Dec-07 17:10 212 0 gusting 1 31.1
2016-Dec-07 17:00 294 0 gusting 0 31.1
2016-Dec-07 16:50 105 1 gusting 4 31.7
2016-Dec-07 16:40 240 0 gusting 1 31.1
2016-Dec-07 16:30 145 4 gusting 7 30.6
2016-Dec-07 16:00 110 2 gusting 6 29.4
2016-Dec-07 15:50 096 0 gusting 2 31.1
2016-Dec-07 15:40 111 0 gusting 6 30.6
2016-Dec-07 15:30 121 4 gusting 7 30.0
2016-Dec-07 15:20 118 4 gusting 6 30.0
2016-Dec-07 15:10 339 2 gusting 7 30.0
2016-Dec-07 15:00 105 6 gusting 8 29.4
2016-Dec-07 14:50 113 2 gusting 6 28.9
2016-Dec-07 14:40 033 3 gusting 4 28.3
2016-Dec-07 14:20 220 1 gusting 4 28.9
2016-Dec-07 13:50 089 0 gusting 4 27.8
2016-Dec-07 13:40 073 0 gusting 4 27.8
2016-Dec-07 13:30 095 1 gusting 2 27.8
2016-Dec-07 13:20 069 0 gusting 2 27.2
2016-Dec-07 13:10 070 2 gusting 4 26.7
2016-Dec-07 13:00 094 1 gusting 2 26.7
2016-Dec-07 12:50 078 1 gusting 4 26.1
2016-Dec-07 12:40 097 0 gusting 2 25.6
2016-Dec-07 12:30 148 2 gusting 4 25.6
2016-Dec-07 12:20 098 1 gusting 2 25.0
2016-Dec-07 12:10 096 1 gusting 2 25.0
2016-Dec-07 12:00 025 1 gusting 1 25.0
2016-Dec-07 11:40 104 1 gusting 1 24.4
2016-Dec-07 11:30 080 0 gusting 1 24.4
2016-Dec-07 11:20 072 1 gusting 2 25.0
2016-Dec-07 11:10 098 1 gusting 2 25.0
2016-Dec-07 11:00 109 1 gusting 1 25.0
2016-Dec-07 10:50 097 1 gusting 1 24.4
2016-Dec-07 10:40 108 1 gusting 1 25.0
2016-Dec-07 10:30 123 0 gusting 1 25.0
2016-Dec-07 10:10 094 1 gusting 2 25.0
2016-Dec-07 10:00 110 1 gusting 2 25.0
2016-Dec-07 09:50 096 0 gusting 1 25.0
2016-Dec-07 09:40 101 0 gusting 2 25.0
2016-Dec-07 09:30 106 3 gusting 4 25.0
2016-Dec-07 09:10 079 1 gusting 1 25.6
2016-Dec-07 09:00 062 2 gusting 2 25.6
2016-Dec-07 08:50 101 1 gusting 2 25.6
2016-Dec-07 08:20 097 1 gusting 4 25.0
2016-Dec-07 08:10 096 1 gusting 2 25.6
2016-Dec-07 08:00 082 2 gusting 4 25.6
2016-Dec-07 07:50 065 1 gusting 4 25.6
2016-Dec-07 07:40 074 0 gusting 4 25.6
2016-Dec-07 07:30 081 1 gusting 1 25.6
2016-Dec-07 07:20 095 0 gusting 1 25.0
2016-Dec-07 07:10 077 0 gusting 1 25.6
2016-Dec-07 07:00 067 0 gusting 1 25.6
2016-Dec-07 06:30 080 1 gusting 1 25.6
2016-Dec-07 06:20 082 1 gusting 2 25.6
2016-Dec-07 06:10 082 1 gusting 4 25.6
2016-Dec-07 06:00 093 1 gusting 2 25.6
2016-Dec-07 05:50 099 0 gusting 2 25.6
2016-Dec-07 05:40 099 1 gusting 1 25.6
2016-Dec-07 05:30 079 1 gusting 2 25.6
2016-Dec-07 05:20 084 1 gusting 2 25.6
2016-Dec-07 05:00 035 2 gusting 4 25.6
2016-Dec-07 04:50 077 3 gusting 4 25.6
2016-Dec-07 04:40 071 1 gusting 1 25.6
2016-Dec-07 04:30 038 1 gusting 1 25.6
2016-Dec-07 04:20 114 0 gusting 1 25.6
2016-Dec-07 04:00 014 0 gusting 1 25.6
2016-Dec-07 03:40 060 1 gusting 2 26.1
2016-Dec-07 03:30 067 2 gusting 2 26.1
2016-Dec-07 03:20 090 1 gusting 2 26.1
2016-Dec-07 03:10 100 1 gusting 1 26.1
2016-Dec-07 02:50 090 1 gusting 5 26.1
2016-Dec-07 02:40 077 2 gusting 2 26.1
2016-Dec-07 02:30 083 2 gusting 2 26.1
2016-Dec-07 02:20 100 1 gusting 2 26.1
2016-Dec-07 02:10 090 1 gusting 2 26.1
2016-Dec-07 02:00 072 2 gusting 2 26.1
2016-Dec-07 01:40 055 0 gusting 1 26.1
2016-Dec-07 01:30 064 2 gusting 4 26.1
2016-Dec-07 01:20 094 1 gusting 4 26.7
2016-Dec-07 01:00 066 0 gusting 2 26.7
2016-Dec-07 00:50 084 0 gusting 2 26.7
2016-Dec-07 00:40 082 1 gusting 2 26.7
2016-Dec-07 00:30 083 4 gusting 4 26.7
2016-Dec-07 00:20 141 1 gusting 4 27.2
2016-Dec-07 00:10 123 1 gusting 2 27.2
2016-Dec-07 00:00 160 1 gusting 2 27.2
2016-Dec-06 23:50 092 2 gusting 4 27.2
2016-Dec-06 23:40 083 1 gusting 4 27.8
2016-Dec-06 23:30 167 0 gusting 4 27.8
2016-Dec-06 23:20 148 27.8
2016-Dec-06 23:10 116 27.8
2016-Dec-06 23:00 142 27.8
2016-Dec-06 22:50 177 28.3
2016-Dec-06 22:40 177 28.3
2016-Dec-06 22:30 099 28.3
2016-Dec-06 22:20 095 29.4
2016-Dec-06 22:10 333 0 gusting 0 29.4
2016-Dec-06 22:00 170 29.4
2016-Dec-06 21:50 082 29.4
2016-Dec-06 21:40 044 0 gusting 1 30.0
2016-Dec-06 21:30 322 30.0
2016-Dec-06 21:10 152 0 gusting 1 30.6
2016-Dec-06 21:00 001 30.6
2016-Dec-06 20:50 130 0 gusting 2 30.0
2016-Dec-06 20:40 336 0 gusting 0 30.6
2016-Dec-06 20:30 092 0 gusting 0 30.6
2016-Dec-06 20:20 279 0 gusting 1 30.6
2016-Dec-06 20:10 169 0 gusting 1 30.6
2016-Dec-06 19:50 007 0 gusting 2 30.0
2016-Dec-06 19:30 268 0 gusting 1 29.4
2016-Dec-06 19:20 110 0 gusting 1 28.9
2016-Dec-06 19:00 093 28.3
2016-Dec-06 18:50 208 28.9
2016-Dec-06 18:40 051 28.9
2016-Dec-06 18:30 243 29.4
2016-Dec-06 18:20 230 0 gusting 0 30.6
2016-Dec-06 18:10 141 0 gusting 1 31.7
2016-Dec-06 17:50 230 2 gusting 5 30.0
2016-Dec-06 17:40 112 1 gusting 4 30.0
2016-Dec-06 17:20 154 30.6
2016-Dec-06 17:10 202 30.0
2016-Dec-06 17:00 161 30.6
2016-Dec-06 16:50 188 30.6
2016-Dec-06 16:40 194 0 gusting 0 30.6
2016-Dec-06 16:30 161 0 gusting 0 31.1
2016-Dec-06 16:20 190 30.6
2016-Dec-06 16:10 097 0 gusting 0 30.0
2016-Dec-06 16:00 172 1 gusting 1 29.4
2016-Dec-06 15:50 170 0 gusting 1 30.0
2016-Dec-06 15:30 069 0 gusting 4 30.6
2016-Dec-06 15:20 145 30.0
2016-Dec-06 15:10 135 0 gusting 0 29.4
2016-Dec-06 15:00 188 0 gusting 0 28.9
2016-Dec-06 14:50 118 28.9
2016-Dec-06 14:40 132 1 gusting 2 28.3
2016-Dec-06 14:00 070 0 gusting 4 28.3
2016-Dec-06 13:50 168 1 gusting 4 28.3
2016-Dec-06 13:40 086 1 gusting 4 27.8
2016-Dec-06 13:30 110 0 gusting 2 26.7
2016-Dec-06 13:20 077 0 gusting 5 27.2
2016-Dec-06 13:00 060 1 gusting 2 26.7
2016-Dec-06 12:50 050 0 gusting 1 26.7
2016-Dec-06 12:40 104 0 gusting 1 26.7
2016-Dec-06 12:30 088 0 gusting 1 26.1
2016-Dec-06 12:20 075 0 gusting 1 26.1
2016-Dec-06 12:10 031 0 gusting 1 26.1
2016-Dec-06 12:00 093 0 gusting 1 26.7
2016-Dec-06 11:50 058 1 gusting 2 26.7
2016-Dec-06 11:40 090 0 gusting 1 26.7
2016-Dec-06 11:20 138 0 gusting 0 26.7
2016-Dec-06 11:10 101 26.7
2016-Dec-06 11:00 097 26.7
2016-Dec-06 10:50 110 26.7
2016-Dec-06 10:40 161 0 gusting 0 27.2
2016-Dec-06 10:20 096 27.2
2016-Dec-06 10:10 151 0 gusting 0 27.2
2016-Dec-06 09:50 142 27.2
2016-Dec-06 09:40 081 27.2
2016-Dec-06 09:30 214 0 gusting 0 27.2
2016-Dec-06 09:20 059 27.2
2016-Dec-06 09:10 051 27.2
2016-Dec-06 09:00 119 27.2
2016-Dec-06 08:50 153 27.2
2016-Dec-06 08:40 272 27.2
2016-Dec-06 08:30 211 27.2
2016-Dec-06 08:00 168 27.2
2016-Dec-06 07:50 095 27.2
2016-Dec-06 07:40 198 27.2
2016-Dec-06 07:30 220 27.2
2016-Dec-06 07:20 039 27.2
2016-Dec-06 07:10 115 0 gusting 0 27.2
2016-Dec-06 07:00 115 27.2
2016-Dec-06 06:50 003 0 gusting 1 27.2
2016-Dec-06 06:40 337 27.2
2016-Dec-06 06:30 176 27.2
2016-Dec-06 06:10 206 27.8
2016-Dec-06 06:00 110 0 gusting 0 27.2
2016-Dec-06 05:20 064 27.2
2016-Dec-06 05:10 013 0 gusting 0 27.8
2016-Dec-06 05:00 081 27.2
2016-Dec-06 04:50 166 27.2
2016-Dec-06 04:40 316 27.8
2016-Dec-06 04:20 110 27.2
2016-Dec-06 04:10 130 0 gusting 0 27.8
2016-Dec-06 04:00 124 0 gusting 1 27.8
2016-Dec-06 03:50 129 27.8
2016-Dec-06 03:40 191 27.8
2016-Dec-06 03:30 180 27.8
2016-Dec-06 03:20 243 27.8
2016-Dec-06 03:10 071 0 gusting 0 27.8
2016-Dec-06 02:50 169 27.8
2016-Dec-06 02:40 210 0 gusting 1 27.8
2016-Dec-06 02:30 053 27.8
2016-Dec-06 02:20 169 27.8
2016-Dec-06 02:10 161 1 gusting 1 27.8
2016-Dec-06 02:00 335 0 gusting 0 27.8
2016-Dec-06 01:40 014 27.8
2016-Dec-06 01:30 293 0 gusting 0 27.8
2016-Dec-06 01:20 216 0 gusting 0 27.8
2016-Dec-06 01:10 199 0 gusting 1 27.8
2016-Dec-06 01:00 125 0 gusting 0 27.8
2016-Dec-06 00:50 053 27.8
2016-Dec-06 00:40 088 0 gusting 0 27.8
2016-Dec-06 00:30 210 0 gusting 0 27.8
2016-Dec-06 00:10 135 27.8
2016-Dec-05 23:50 118 0 gusting 1 27.8
2016-Dec-05 23:40 196 0 gusting 1 27.8
2016-Dec-05 23:30 078 0 gusting 1 27.8
2016-Dec-05 23:20 147 27.8
2016-Dec-05 23:00 320 27.8
2016-Dec-05 22:54 198 0 gusting 1 28.3
2016-Dec-05 22:50 206 0 gusting 1 28.3
2016-Dec-05 22:40 336 0 28.3
2016-Dec-05 22:30 124 28.3
2016-Dec-05 22:20 054 28.9
2016-Dec-05 22:10 170 28.9
2016-Dec-05 22:00 185 29.4
2016-Dec-05 21:50 132 29.4
2016-Dec-05 21:40 232 30.0
2016-Dec-05 21:30 157 0 gusting 1 29.4
2016-Dec-05 21:20 048 0 gusting 1 29.4
2016-Dec-05 21:10 138 1 gusting 2 30.0
2016-Dec-05 21:00 142 0 gusting 0 30.6
2016-Dec-05 20:50 069 30.0
2016-Dec-05 20:40 183 0 gusting 1 30.6
2016-Dec-05 20:30 033 0 gusting 1 30.6
2016-Dec-05 20:20 278 30.0
2016-Dec-05 20:10 187 30.6
2016-Dec-05 20:00 110 0 gusting 0 30.0